sensor_id;sensor_type;location;lat;lon;timestamp;P1;durP1;ratioP1;P2;durP2;ratioP2
6860;SDS011;3469;47.060;15.460;2023-02-01T00:01:24;7.80;;;4.35;;
6860;SDS011;3469;47.060;15.460;2023-02-01T00:03:52;9.15;;;5.53;;
6860;SDS011;3469;47.060;15.460;2023-02-01T00:06:21;10.25;;;5.80;;
6860;SDS011;3469;47.060;15.460;2023-02-01T00:08:53;9.38;;;5.35;;
6860;SDS011;3469;47.060;15.460;2023-02-01T00:11:22;9.88;;;5.38;;
6860;SDS011;3469;47.060;15.460;2023-02-01T00:13:52;8.05;;;4.55;;
6860;SDS011;3469;47.060;15.460;2023-02-01T00:16:21;12.02;;;5.82;;
6860;SDS011;3469;47.060;15.460;2023-02-01T00:18:51;12.32;;;6.00;;
6860;SDS011;3469;47.060;15.460;2023-02-01T00:21:20;10.02;;;4.72;;
6860;SDS011;3469;47.060;15.460;2023-02-01T00:23:48;6.05;;;4.50;;
6860;SDS011;3469;47.060;15.460;2023-02-01T00:26:19;6.10;;;3.40;;
6860;SDS011;3469;47.060;15.460;2023-02-01T00:28:50;9.85;;;5.28;;
6860;SDS011;3469;47.060;15.460;2023-02-01T00:31:18;9.75;;;5.35;;
6860;SDS011;3469;47.060;15.460;2023-02-01T00:33:48;8.60;;;4.80;;
6860;SDS011;3469;47.060;15.460;2023-02-01T00:36:17;8.13;;;4.80;;
6860;SDS011;3469;47.060;15.460;2023-02-01T00:38:45;1.92;;;1.38;;
6860;SDS011;3469;47.060;15.460;2023-02-01T00:41:14;5.85;;;4.40;;
6860;SDS011;3469;47.060;15.460;2023-02-01T00:43:45;6.03;;;4.32;;
6860;SDS011;3469;47.060;15.460;2023-02-01T00:46:15;5.88;;;4.30;;
6860;SDS011;3469;47.060;15.460;2023-02-01T00:48:44;10.20;;;5.22;;
6860;SDS011;3469;47.060;15.460;2023-02-01T00:51:14;7.57;;;4.53;;
6860;SDS011;3469;47.060;15.460;2023-02-01T00:53:43;7.80;;;4.45;;
6860;SDS011;3469;47.060;15.460;2023-02-01T00:56:12;10.88;;;4.90;;
6860;SDS011;3469;47.060;15.460;2023-02-01T00:58:41;7.82;;;4.38;;
6860;SDS011;3469;47.060;15.460;2023-02-01T01:01:13;10.27;;;3.97;;
6860;SDS011;3469;47.060;15.460;2023-02-01T01:03:43;10.30;;;4.38;;
6860;SDS011;3469;47.060;15.460;2023-02-01T01:06:13;9.25;;;4.47;;
6860;SDS011;3469;47.060;15.460;2023-02-01T01:08:43;5.78;;;3.65;;
6860;SDS011;3469;47.060;15.460;2023-02-01T01:11:12;5.90;;;4.13;;
6860;SDS011;3469;47.060;15.460;2023-02-01T01:13:41;7.97;;;5.15;;
6860;SDS011;3469;47.060;15.460;2023-02-01T01:16:10;8.18;;;3.92;;
6860;SDS011;3469;47.060;15.460;2023-02-01T01:18:40;7.82;;;4.93;;
6860;SDS011;3469;47.060;15.460;2023-02-01T01:21:12;9.15;;;4.60;;
6860;SDS011;3469;47.060;15.460;2023-02-01T01:23:42;6.75;;;2.20;;
6860;SDS011;3469;47.060;15.460;2023-02-01T01:26:12;9.57;;;3.92;;
6860;SDS011;3469;47.060;15.460;2023-02-01T01:28:42;5.95;;;3.85;;
6860;SDS011;3469;47.060;15.460;2023-02-01T01:31:11;9.25;;;4.90;;
6860;SDS011;3469;47.060;15.460;2023-02-01T01:33:42;9.23;;;4.18;;
6860;SDS011;3469;47.060;15.460;2023-02-01T01:36:11;6.13;;;3.83;;
6860;SDS011;3469;47.060;15.460;2023-02-01T01:38:40;8.15;;;4.60;;
6860;SDS011;3469;47.060;15.460;2023-02-01T01:41:11;14.90;;;3.95;;
6860;SDS011;3469;47.060;15.460;2023-02-01T01:43:49;6.72;;;3.28;;
6860;SDS011;3469;47.060;15.460;2023-02-01T01:46:21;13.00;;;4.78;;
6860;SDS011;3469;47.060;15.460;2023-02-01T01:48:53;4.65;;;3.88;;
6860;SDS011;3469;47.060;15.460;2023-02-01T01:51:26;7.50;;;4.32;;
6860;SDS011;3469;47.060;15.460;2023-02-01T01:53:59;8.30;;;4.32;;
6860;SDS011;3469;47.060;15.460;2023-02-01T01:56:30;5.68;;;3.83;;
6860;SDS011;3469;47.060;15.460;2023-02-01T01:59:00;8.75;;;4.13;;
6860;SDS011;3469;47.060;15.460;2023-02-01T02:01:29;7.00;;;4.45;;
6860;SDS011;3469;47.060;15.460;2023-02-01T02:03:59;6.10;;;3.10;;
6860;SDS011;3469;47.060;15.460;2023-02-01T02:06:30;6.82;;;3.83;;
6860;SDS011;3469;47.060;15.460;2023-02-01T02:09:03;6.70;;;3.90;;
6860;SDS011;3469;47.060;15.460;2023-02-01T02:11:32;7.32;;;5.10;;
6860;SDS011;3469;47.060;15.460;2023-02-01T02:14:01;7.13;;;4.07;;
6860;SDS011;3469;47.060;15.460;2023-02-01T02:16:34;7.65;;;4.47;;
6860;SDS011;3469;47.060;15.460;2023-02-01T02:22:23;11.80;;;5.20;;
6860;SDS011;3469;47.060;15.460;2023-02-01T02:28:13;4.43;;;3.47;;
6860;SDS011;3469;47.060;15.460;2023-02-01T02:30:59;8.38;;;4.18;;
6860;SDS011;3469;47.060;15.460;2023-02-01T02:33:49;5.00;;;3.58;;
6860;SDS011;3469;47.060;15.460;2023-02-01T02:36:24;4.45;;;2.88;;
6860;SDS011;3469;47.060;15.460;2023-02-01T02:39:03;11.00;;;5.18;;
6860;SDS011;3469;47.060;15.460;2023-02-01T02:41:39;6.45;;;3.25;;
6860;SDS011;3469;47.060;15.460;2023-02-01T02:44:35;7.60;;;4.35;;
6860;SDS011;3469;47.060;15.460;2023-02-01T02:47:25;5.53;;;3.10;;
6860;SDS011;3469;47.060;15.460;2023-02-01T02:50:11;7.72;;;3.78;;
6860;SDS011;3469;47.060;15.460;2023-02-01T02:53:00;6.03;;;3.47;;
6860;SDS011;3469;47.060;15.460;2023-02-01T02:55:48;6.85;;;2.30;;
6860;SDS011;3469;47.060;15.460;2023-02-01T02:58:18;5.78;;;3.33;;
6860;SDS011;3469;47.060;15.460;2023-02-01T03:01:05;3.13;;;2.10;;
6860;SDS011;3469;47.060;15.460;2023-02-01T03:03:51;9.55;;;4.40;;
6860;SDS011;3469;47.060;15.460;2023-02-01T03:06:40;6.85;;;4.38;;
6860;SDS011;3469;47.060;15.460;2023-02-01T03:09:11;6.63;;;4.25;;
6860;SDS011;3469;47.060;15.460;2023-02-01T03:11:42;5.90;;;3.85;;
6860;SDS011;3469;47.060;15.460;2023-02-01T03:14:29;7.85;;;4.93;;
6860;SDS011;3469;47.060;15.460;2023-02-01T03:17:00;9.73;;;4.70;;
6860;SDS011;3469;47.060;15.460;2023-02-01T03:19:31;4.07;;;3.40;;
6860;SDS011;3469;47.060;15.460;2023-02-01T03:22:03;2.63;;;1.58;;
6860;SDS011;3469;47.060;15.460;2023-02-01T03:24:36;6.53;;;4.00;;
6860;SDS011;3469;47.060;15.460;2023-02-01T03:27:07;5.53;;;3.08;;
6860;SDS011;3469;47.060;15.460;2023-02-01T03:29:40;6.38;;;3.60;;
6860;SDS011;3469;47.060;15.460;2023-02-01T03:32:13;5.95;;;3.55;;
6860;SDS011;3469;47.060;15.460;2023-02-01T03:34:41;6.50;;;3.60;;
6860;SDS011;3469;47.060;15.460;2023-02-01T03:37:13;6.45;;;4.07;;
6860;SDS011;3469;47.060;15.460;2023-02-01T03:39:45;5.15;;;3.75;;
6860;SDS011;3469;47.060;15.460;2023-02-01T03:42:16;2.55;;;1.80;;
6860;SDS011;3469;47.060;15.460;2023-02-01T03:44:49;6.88;;;3.75;;
6860;SDS011;3469;47.060;15.460;2023-02-01T03:47:20;6.63;;;3.17;;
6860;SDS011;3469;47.060;15.460;2023-02-01T03:49:52;5.07;;;3.58;;
6860;SDS011;3469;47.060;15.460;2023-02-01T03:52:27;6.78;;;3.22;;
6860;SDS011;3469;47.060;15.460;2023-02-01T03:55:02;6.85;;;3.95;;
6860;SDS011;3469;47.060;15.460;2023-02-01T03:57:32;8.55;;;2.90;;
6860;SDS011;3469;47.060;15.460;2023-02-01T04:00:05;7.25;;;3.83;;
6860;SDS011;3469;47.060;15.460;2023-02-01T04:02:44;8.23;;;4.72;;
6860;SDS011;3469;47.060;15.460;2023-02-01T04:05:13;6.75;;;4.10;;
6860;SDS011;3469;47.060;15.460;2023-02-01T04:07:49;8.98;;;4.80;;
6860;SDS011;3469;47.060;15.460;2023-02-01T04:10:18;13.00;;;4.97;;
6860;SDS011;3469;47.060;15.460;2023-02-01T04:12:47;15.00;;;5.50;;
6860;SDS011;3469;47.060;15.460;2023-02-01T04:15:15;10.07;;;5.00;;
6860;SDS011;3469;47.060;15.460;2023-02-01T04:17:43;7.57;;;4.70;;
6860;SDS011;3469;47.060;15.460;2023-02-01T04:20:12;8.48;;;4.97;;
6860;SDS011;3469;47.060;15.460;2023-02-01T04:22:40;6.45;;;4.45;;
6860;SDS011;3469;47.060;15.460;2023-02-01T04:25:10;4.30;;;2.53;;
6860;SDS011;3469;47.060;15.460;2023-02-01T04:27:38;6.97;;;4.78;;
6860;SDS011;3469;47.060;15.460;2023-02-01T04:30:07;3.00;;;2.22;;
6860;SDS011;3469;47.060;15.460;2023-02-01T04:32:37;9.70;;;5.43;;
6860;SDS011;3469;47.060;15.460;2023-02-01T04:35:06;4.63;;;3.45;;
6860;SDS011;3469;47.060;15.460;2023-02-01T04:37:35;7.57;;;4.88;;
6860;SDS011;3469;47.060;15.460;2023-02-01T04:40:04;8.98;;;5.10;;
6860;SDS011;3469;47.060;15.460;2023-02-01T04:42:34;5.55;;;2.80;;
6860;SDS011;3469;47.060;15.460;2023-02-01T04:45:03;9.50;;;5.35;;
6860;SDS011;3469;47.060;15.460;2023-02-01T04:47:32;7.32;;;4.32;;
6860;SDS011;3469;47.060;15.460;2023-02-01T04:50:00;5.07;;;3.33;;
6860;SDS011;3469;47.060;15.460;2023-02-01T04:52:29;9.07;;;5.25;;
6860;SDS011;3469;47.060;15.460;2023-02-01T04:54:57;9.02;;;5.85;;
6860;SDS011;3469;47.060;15.460;2023-02-01T04:57:26;10.48;;;6.05;;
6860;SDS011;3469;47.060;15.460;2023-02-01T04:59:56;11.02;;;6.55;;
6860;SDS011;3469;47.060;15.460;2023-02-01T05:02:25;10.60;;;6.22;;
6860;SDS011;3469;47.060;15.460;2023-02-01T05:04:54;8.57;;;4.53;;
6860;SDS011;3469;47.060;15.460;2023-02-01T05:07:22;10.50;;;6.28;;
6860;SDS011;3469;47.060;15.460;2023-02-01T05:09:51;13.30;;;6.93;;
6860;SDS011;3469;47.060;15.460;2023-02-01T05:12:19;8.75;;;5.13;;
6860;SDS011;3469;47.060;15.460;2023-02-01T05:15:06;9.18;;;4.55;;
6860;SDS011;3469;47.060;15.460;2023-02-01T05:17:35;8.45;;;5.13;;
6860;SDS011;3469;47.060;15.460;2023-02-01T05:20:04;11.48;;;5.55;;
6860;SDS011;3469;47.060;15.460;2023-02-01T05:22:34;6.05;;;3.47;;
6860;SDS011;3469;47.060;15.460;2023-02-01T05:25:02;5.07;;;2.80;;
6860;SDS011;3469;47.060;15.460;2023-02-01T05:27:33;11.48;;;4.90;;
6860;SDS011;3469;47.060;15.460;2023-02-01T05:30:02;7.20;;;4.25;;
6860;SDS011;3469;47.060;15.460;2023-02-01T05:32:33;1.08;;;0.82;;
6860;SDS011;3469;47.060;15.460;2023-02-01T05:35:01;2.40;;;1.73;;
6860;SDS011;3469;47.060;15.460;2023-02-01T05:37:30;5.65;;;2.92;;
6860;SDS011;3469;47.060;15.460;2023-02-01T05:39:58;7.88;;;3.78;;
6860;SDS011;3469;47.060;15.460;2023-02-01T05:42:27;6.70;;;4.15;;
6860;SDS011;3469;47.060;15.460;2023-02-01T05:44:55;11.25;;;5.03;;
6860;SDS011;3469;47.060;15.460;2023-02-01T05:47:23;9.95;;;4.45;;
6860;SDS011;3469;47.060;15.460;2023-02-01T05:49:54;8.20;;;3.83;;
6860;SDS011;3469;47.060;15.460;2023-02-01T05:52:23;3.70;;;2.67;;
6860;SDS011;3469;47.060;15.460;2023-02-01T05:54:52;12.20;;;4.50;;
6860;SDS011;3469;47.060;15.460;2023-02-01T05:57:22;10.73;;;4.63;;
6860;SDS011;3469;47.060;15.460;2023-02-01T05:59:51;35.83;;;5.72;;
6860;SDS011;3469;47.060;15.460;2023-02-01T06:02:20;7.25;;;4.15;;
6860;SDS011;3469;47.060;15.460;2023-02-01T06:04:51;6.35;;;3.75;;
6860;SDS011;3469;47.060;15.460;2023-02-01T06:07:22;5.82;;;3.10;;
6860;SDS011;3469;47.060;15.460;2023-02-01T06:09:55;15.30;;;7.05;;
6860;SDS011;3469;47.060;15.460;2023-02-01T06:12:28;12.18;;;6.10;;
6860;SDS011;3469;47.060;15.460;2023-02-01T06:14:58;11.20;;;5.13;;
6860;SDS011;3469;47.060;15.460;2023-02-01T06:17:27;6.30;;;3.60;;
6860;SDS011;3469;47.060;15.460;2023-02-01T06:19:57;8.35;;;4.28;;
6860;SDS011;3469;47.060;15.460;2023-02-01T06:22:28;8.18;;;4.18;;
6860;SDS011;3469;47.060;15.460;2023-02-01T06:25:01;7.07;;;4.00;;
6860;SDS011;3469;47.060;15.460;2023-02-01T06:27:31;8.60;;;4.07;;
6860;SDS011;3469;47.060;15.460;2023-02-01T06:30:01;10.32;;;5.70;;
6860;SDS011;3469;47.060;15.460;2023-02-01T06:32:33;6.32;;;4.47;;
6860;SDS011;3469;47.060;15.460;2023-02-01T06:35:06;8.35;;;4.97;;
6860;SDS011;3469;47.060;15.460;2023-02-01T06:37:39;10.38;;;4.93;;
6860;SDS011;3469;47.060;15.460;2023-02-01T06:40:12;3.05;;;1.73;;
6860;SDS011;3469;47.060;15.460;2023-02-01T06:42:44;5.18;;;2.15;;
6860;SDS011;3469;47.060;15.460;2023-02-01T06:45:14;12.13;;;6.28;;
6860;SDS011;3469;47.060;15.460;2023-02-01T06:47:43;6.07;;;4.25;;
6860;SDS011;3469;47.060;15.460;2023-02-01T06:50:12;10.35;;;4.25;;
6860;SDS011;3469;47.060;15.460;2023-02-01T06:52:42;9.60;;;5.13;;
6860;SDS011;3469;47.060;15.460;2023-02-01T06:55:10;7.40;;;4.38;;
6860;SDS011;3469;47.060;15.460;2023-02-01T06:57:39;8.07;;;4.50;;
6860;SDS011;3469;47.060;15.460;2023-02-01T07:00:08;7.63;;;4.90;;
6860;SDS011;3469;47.060;15.460;2023-02-01T07:02:39;7.28;;;4.40;;
6860;SDS011;3469;47.060;15.460;2023-02-01T07:05:07;12.10;;;4.28;;
6860;SDS011;3469;47.060;15.460;2023-02-01T07:07:36;18.27;;;6.95;;
6860;SDS011;3469;47.060;15.460;2023-02-01T07:10:06;10.70;;;4.55;;
6860;SDS011;3469;47.060;15.460;2023-02-01T07:12:37;8.35;;;4.32;;
6860;SDS011;3469;47.060;15.460;2023-02-01T07:15:06;7.72;;;4.07;;
6860;SDS011;3469;47.060;15.460;2023-02-01T07:17:37;8.30;;;4.70;;
6860;SDS011;3469;47.060;15.460;2023-02-01T07:20:07;7.38;;;4.65;;
6860;SDS011;3469;47.060;15.460;2023-02-01T07:22:37;4.03;;;2.95;;
6860;SDS011;3469;47.060;15.460;2023-02-01T07:25:09;9.93;;;3.92;;
6860;SDS011;3469;47.060;15.460;2023-02-01T07:27:39;5.35;;;4.25;;
6860;SDS011;3469;47.060;15.460;2023-02-01T07:30:09;9.45;;;4.90;;
6860;SDS011;3469;47.060;15.460;2023-02-01T07:32:39;6.45;;;4.25;;
6860;SDS011;3469;47.060;15.460;2023-02-01T07:35:09;8.38;;;4.75;;
6860;SDS011;3469;47.060;15.460;2023-02-01T07:37:39;4.35;;;3.40;;
6860;SDS011;3469;47.060;15.460;2023-02-01T07:40:11;9.60;;;4.93;;
6860;SDS011;3469;47.060;15.460;2023-02-01T07:42:42;6.43;;;4.13;;
6860;SDS011;3469;47.060;15.460;2023-02-01T07:45:12;7.45;;;4.22;;
6860;SDS011;3469;47.060;15.460;2023-02-01T07:47:47;8.90;;;4.25;;
6860;SDS011;3469;47.060;15.460;2023-02-01T07:50:17;6.00;;;3.88;;
6860;SDS011;3469;47.060;15.460;2023-02-01T07:52:48;10.98;;;4.75;;
6860;SDS011;3469;47.060;15.460;2023-02-01T07:55:21;7.60;;;3.70;;
6860;SDS011;3469;47.060;15.460;2023-02-01T07:57:52;7.00;;;3.33;;
6860;SDS011;3469;47.060;15.460;2023-02-01T08:00:21;10.43;;;4.87;;
6860;SDS011;3469;47.060;15.460;2023-02-01T08:03:10;7.63;;;3.23;;
6860;SDS011;3469;47.060;15.460;2023-02-01T08:05:42;5.25;;;3.33;;
6860;SDS011;3469;47.060;15.460;2023-02-01T08:08:11;5.40;;;3.70;;
6860;SDS011;3469;47.060;15.460;2023-02-01T08:10:41;7.50;;;3.60;;
6860;SDS011;3469;47.060;15.460;2023-02-01T08:13:10;4.50;;;3.37;;
6860;SDS011;3469;47.060;15.460;2023-02-01T08:15:39;6.53;;;2.80;;
6860;SDS011;3469;47.060;15.460;2023-02-01T08:21:06;3.03;;;2.67;;
6860;SDS011;3469;47.060;15.460;2023-02-01T08:23:36;6.67;;;4.03;;
6860;SDS011;3469;47.060;15.460;2023-02-01T08:26:09;12.87;;;3.47;;
6860;SDS011;3469;47.060;15.460;2023-02-01T08:28:48;8.93;;;3.57;;
6860;SDS011;3469;47.060;15.460;2023-02-01T08:31:18;6.63;;;2.93;;
6860;SDS011;3469;47.060;15.460;2023-02-01T08:33:50;4.83;;;3.60;;
6860;SDS011;3469;47.060;15.460;2023-02-01T08:36:21;7.77;;;4.13;;
6860;SDS011;3469;47.060;15.460;2023-02-01T08:38:50;7.50;;;4.37;;
6860;SDS011;3469;47.060;15.460;2023-02-01T08:41:22;6.67;;;3.40;;
6860;SDS011;3469;47.060;15.460;2023-02-01T08:43:53;7.90;;;3.60;;
6860;SDS011;3469;47.060;15.460;2023-02-01T08:46:22;7.17;;;4.47;;
6860;SDS011;3469;47.060;15.460;2023-02-01T08:48:52;7.57;;;4.70;;
6860;SDS011;3469;47.060;15.460;2023-02-01T09:24:23;10.47;;;6.20;;
6860;SDS011;3469;47.060;15.460;2023-02-01T09:26:52;10.13;;;6.17;;
6860;SDS011;3469;47.060;15.460;2023-02-01T09:29:22;11.43;;;5.70;;
6860;SDS011;3469;47.060;15.460;2023-02-01T09:31:50;9.63;;;5.50;;
6860;SDS011;3469;47.060;15.460;2023-02-01T09:34:29;12.57;;;6.00;;
6860;SDS011;3469;47.060;15.460;2023-02-01T09:36:57;11.70;;;5.80;;
6860;SDS011;3469;47.060;15.460;2023-02-01T09:39:27;12.77;;;6.40;;
6860;SDS011;3469;47.060;15.460;2023-02-01T09:41:59;14.23;;;6.20;;
6860;SDS011;3469;47.060;15.460;2023-02-01T09:44:40;9.47;;;6.30;;
6860;SDS011;3469;47.060;15.460;2023-02-01T09:47:17;12.80;;;6.13;;
6860;SDS011;3469;47.060;15.460;2023-02-01T09:49:49;16.53;;;6.23;;
6860;SDS011;3469;47.060;15.460;2023-02-01T09:52:23;11.20;;;6.90;;
6860;SDS011;3469;47.060;15.460;2023-02-01T09:55:03;10.90;;;6.03;;
6860;SDS011;3469;47.060;15.460;2023-02-01T09:57:41;15.53;;;5.50;;
6860;SDS011;3469;47.060;15.460;2023-02-01T10:00:15;7.00;;;4.80;;
6860;SDS011;3469;47.060;15.460;2023-02-01T10:02:45;17.30;;;5.10;;
6860;SDS011;3469;47.060;15.460;2023-02-01T10:05:14;6.07;;;4.83;;
6860;SDS011;3469;47.060;15.460;2023-02-01T10:07:48;8.10;;;4.80;;
6860;SDS011;3469;47.060;15.460;2023-02-01T10:10:26;8.77;;;3.90;;
6860;SDS011;3469;47.060;15.460;2023-02-01T10:13:05;11.40;;;5.20;;
6860;SDS011;3469;47.060;15.460;2023-02-01T10:15:47;8.67;;;5.30;;
6860;SDS011;3469;47.060;15.460;2023-02-01T10:18:25;9.57;;;5.80;;
6860;SDS011;3469;47.060;15.460;2023-02-01T10:21:15;9.20;;;5.67;;
6860;SDS011;3469;47.060;15.460;2023-02-01T10:23:58;4.97;;;3.20;;
6860;SDS011;3469;47.060;15.460;2023-02-01T10:26:47;5.03;;;2.70;;
6860;SDS011;3469;47.060;15.460;2023-02-01T10:29:22;6.07;;;3.23;;
6860;SDS011;3469;47.060;15.460;2023-02-01T10:31:53;8.43;;;3.60;;
6860;SDS011;3469;47.060;15.460;2023-02-01T10:34:24;6.60;;;3.23;;
6860;SDS011;3469;47.060;15.460;2023-02-01T10:36:55;7.90;;;4.00;;
6860;SDS011;3469;47.060;15.460;2023-02-01T10:39:25;5.17;;;3.07;;
6860;SDS011;3469;47.060;15.460;2023-02-01T10:41:55;5.00;;;3.43;;
6860;SDS011;3469;47.060;15.460;2023-02-01T10:44:24;7.57;;;3.47;;
6860;SDS011;3469;47.060;15.460;2023-02-01T10:46:54;5.83;;;2.87;;
6860;SDS011;3469;47.060;15.460;2023-02-01T10:49:24;7.63;;;2.30;;
6860;SDS011;3469;47.060;15.460;2023-02-01T10:51:58;5.13;;;2.40;;
6860;SDS011;3469;47.060;15.460;2023-02-01T10:54:33;3.97;;;2.50;;
6860;SDS011;3469;47.060;15.460;2023-02-01T10:57:08;3.70;;;2.70;;
6860;SDS011;3469;47.060;15.460;2023-02-01T10:59:36;6.83;;;2.90;;
6860;SDS011;3469;47.060;15.460;2023-02-01T11:02:13;5.07;;;2.17;;
6860;SDS011;3469;47.060;15.460;2023-02-01T11:04:47;5.47;;;2.43;;
6860;SDS011;3469;47.060;15.460;2023-02-01T11:07:16;3.93;;;3.00;;
6860;SDS011;3469;47.060;15.460;2023-02-01T11:09:49;6.00;;;3.63;;
6860;SDS011;3469;47.060;15.460;2023-02-01T11:12:25;7.13;;;4.30;;
6860;SDS011;3469;47.060;15.460;2023-02-01T11:14:59;5.10;;;3.27;;
6860;SDS011;3469;47.060;15.460;2023-02-01T11:17:32;9.87;;;4.80;;
6860;SDS011;3469;47.060;15.460;2023-02-01T11:20:03;13.23;;;4.73;;
6860;SDS011;3469;47.060;15.460;2023-02-01T11:22:34;6.60;;;4.30;;
6860;SDS011;3469;47.060;15.460;2023-02-01T11:25:06;6.50;;;3.57;;
6860;SDS011;3469;47.060;15.460;2023-02-01T11:27:38;2.80;;;2.30;;
6860;SDS011;3469;47.060;15.460;2023-02-01T11:30:22;5.03;;;2.93;;
6860;SDS011;3469;47.060;15.460;2023-02-01T11:32:58;7.03;;;4.07;;
6860;SDS011;3469;47.060;15.460;2023-02-01T11:35:27;4.80;;;2.87;;
6860;SDS011;3469;47.060;15.460;2023-02-01T11:37:57;6.43;;;2.80;;
6860;SDS011;3469;47.060;15.460;2023-02-01T11:40:27;6.53;;;2.83;;
6860;SDS011;3469;47.060;15.460;2023-02-01T11:42:59;7.77;;;4.10;;
6860;SDS011;3469;47.060;15.460;2023-02-01T11:45:30;7.27;;;3.03;;
6860;SDS011;3469;47.060;15.460;2023-02-01T11:48:00;3.50;;;2.07;;
6860;SDS011;3469;47.060;15.460;2023-02-01T11:50:31;6.00;;;2.30;;
6860;SDS011;3469;47.060;15.460;2023-02-01T11:56:02;1.83;;;0.90;;
6860;SDS011;3469;47.060;15.460;2023-02-01T12:01:53;6.30;;;1.87;;
6860;SDS011;3469;47.060;15.460;2023-02-01T12:07:48;1.23;;;0.80;;
6860;SDS011;3469;47.060;15.460;2023-02-01T12:10:27;4.10;;;1.13;;
6860;SDS011;3469;47.060;15.460;2023-02-01T12:13:01;1.90;;;0.90;;
6860;SDS011;3469;47.060;15.460;2023-02-01T12:15:46;1.97;;;0.80;;
6860;SDS011;3469;47.060;15.460;2023-02-01T12:18:33;3.50;;;1.13;;
6860;SDS011;3469;47.060;15.460;2023-02-01T12:21:14;2.77;;;0.80;;
6860;SDS011;3469;47.060;15.460;2023-02-01T12:23:55;0.80;;;0.50;;
6860;SDS011;3469;47.060;15.460;2023-02-01T12:26:48;1.53;;;0.43;;
6860;SDS011;3469;47.060;15.460;2023-02-01T12:29:27;0.70;;;0.60;;
6860;SDS011;3469;47.060;15.460;2023-02-01T12:32:07;2.10;;;0.40;;
6860;SDS011;3469;47.060;15.460;2023-02-01T12:34:50;0.80;;;0.43;;
6860;SDS011;3469;47.060;15.460;2023-02-01T12:37:29;0.90;;;0.60;;
6860;SDS011;3469;47.060;15.460;2023-02-01T12:40:11;0.70;;;0.40;;
6860;SDS011;3469;47.060;15.460;2023-02-01T12:42:46;0.70;;;0.60;;
6860;SDS011;3469;47.060;15.460;2023-02-01T12:45:20;0.70;;;0.43;;
6860;SDS011;3469;47.060;15.460;2023-02-01T12:47:55;0.83;;;0.40;;
6860;SDS011;3469;47.060;15.460;2023-02-01T12:50:27;0.70;;;0.40;;
6860;SDS011;3469;47.060;15.460;2023-02-01T12:53:03;0.80;;;0.50;;
6860;SDS011;3469;47.060;15.460;2023-02-01T12:55:36;0.70;;;0.40;;
6860;SDS011;3469;47.060;15.460;2023-02-01T12:58:11;2.87;;;0.60;;
6860;SDS011;3469;47.060;15.460;2023-02-01T13:00:44;0.70;;;0.50;;
6860;SDS011;3469;47.060;15.460;2023-02-01T13:03:22;1.23;;;0.50;;
6860;SDS011;3469;47.060;15.460;2023-02-01T13:05:58;0.93;;;0.50;;
6860;SDS011;3469;47.060;15.460;2023-02-01T13:08:35;0.70;;;0.40;;
6860;SDS011;3469;47.060;15.460;2023-02-01T13:11:09;0.63;;;0.37;;
6860;SDS011;3469;47.060;15.460;2023-02-01T13:13:44;0.87;;;0.53;;
6860;SDS011;3469;47.060;15.460;2023-02-01T13:16:15;0.60;;;0.43;;
6860;SDS011;3469;47.060;15.460;2023-02-01T13:18:49;0.90;;;0.37;;
6860;SDS011;3469;47.060;15.460;2023-02-01T13:21:21;0.83;;;0.50;;
6860;SDS011;3469;47.060;15.460;2023-02-01T13:23:52;2.50;;;0.40;;
6860;SDS011;3469;47.060;15.460;2023-02-01T13:26:20;0.90;;;0.47;;
6860;SDS011;3469;47.060;15.460;2023-02-01T13:28:49;1.20;;;0.50;;
6860;SDS011;3469;47.060;15.460;2023-02-01T13:31:32;0.70;;;0.50;;
6860;SDS011;3469;47.060;15.460;2023-02-01T13:34:30;0.80;;;0.47;;
6860;SDS011;3469;47.060;15.460;2023-02-01T13:37:20;1.20;;;0.50;;
6860;SDS011;3469;47.060;15.460;2023-02-01T13:39:59;3.97;;;0.90;;
6860;SDS011;3469;47.060;15.460;2023-02-01T13:42:40;2.60;;;0.63;;
6860;SDS011;3469;47.060;15.460;2023-02-01T13:45:13;4.90;;;1.00;;
6860;SDS011;3469;47.060;15.460;2023-02-01T13:47:43;1.80;;;0.60;;
6860;SDS011;3469;47.060;15.460;2023-02-01T13:50:17;2.17;;;0.90;;
6860;SDS011;3469;47.060;15.460;2023-02-01T13:52:53;0.67;;;0.40;;
6860;SDS011;3469;47.060;15.460;2023-02-01T13:55:24;0.90;;;0.60;;
6860;SDS011;3469;47.060;15.460;2023-02-01T13:58:05;0.70;;;0.50;;
6860;SDS011;3469;47.060;15.460;2023-02-01T14:00:42;1.80;;;0.63;;
6860;SDS011;3469;47.060;15.460;2023-02-01T14:03:14;0.57;;;0.37;;
6860;SDS011;3469;47.060;15.460;2023-02-01T14:05:54;2.33;;;0.70;;
6860;SDS011;3469;47.060;15.460;2023-02-01T14:08:37;0.90;;;0.60;;
6860;SDS011;3469;47.060;15.460;2023-02-01T14:11:35;3.30;;;0.67;;
6860;SDS011;3469;47.060;15.460;2023-02-01T14:23:10;6.40;;;0.50;;
6860;SDS011;3469;47.060;15.460;2023-02-01T14:25:43;0.60;;;0.40;;
6860;SDS011;3469;47.060;15.460;2023-02-01T14:28:18;2.13;;;0.50;;
6860;SDS011;3469;47.060;15.460;2023-02-01T14:30:51;0.63;;;0.40;;
6860;SDS011;3469;47.060;15.460;2023-02-01T14:33:22;1.70;;;0.70;;
6860;SDS011;3469;47.060;15.460;2023-02-01T14:36:06;1.13;;;0.60;;
6860;SDS011;3469;47.060;15.460;2023-02-01T14:38:37;0.87;;;0.57;;
6860;SDS011;3469;47.060;15.460;2023-02-01T14:47:08;1.00;;;0.63;;
6860;SDS011;3469;47.060;15.460;2023-02-01T14:49:39;4.50;;;2.00;;
6860;SDS011;3469;47.060;15.460;2023-02-01T14:52:19;1.20;;;0.60;;
6860;SDS011;3469;47.060;15.460;2023-02-01T14:54:49;2.70;;;0.80;;
6860;SDS011;3469;47.060;15.460;2023-02-01T14:57:23;2.57;;;0.70;;
6860;SDS011;3469;47.060;15.460;2023-02-01T14:59:55;6.63;;;0.80;;
6860;SDS011;3469;47.060;15.460;2023-02-01T15:02:28;0.90;;;0.50;;
6860;SDS011;3469;47.060;15.460;2023-02-01T15:04:58;1.60;;;1.00;;
6860;SDS011;3469;47.060;15.460;2023-02-01T15:07:26;1.53;;;0.70;;
6860;SDS011;3469;47.060;15.460;2023-02-01T15:09:56;2.13;;;0.73;;
6860;SDS011;3469;47.060;15.460;2023-02-01T15:12:34;1.60;;;0.73;;
6860;SDS011;3469;47.060;15.460;2023-02-01T15:15:12;1.80;;;0.80;;
6860;SDS011;3469;47.060;15.460;2023-02-01T15:17:49;1.37;;;0.67;;
6860;SDS011;3469;47.060;15.460;2023-02-01T15:20:19;0.90;;;0.60;;
6860;SDS011;3469;47.060;15.460;2023-02-01T15:22:53;2.20;;;1.10;;
6860;SDS011;3469;47.060;15.460;2023-02-01T15:25:23;0.97;;;0.70;;
6860;SDS011;3469;47.060;15.460;2023-02-01T15:27:54;2.60;;;0.93;;
6860;SDS011;3469;47.060;15.460;2023-02-01T15:30:24;1.50;;;1.00;;
6860;SDS011;3469;47.060;15.460;2023-02-01T15:33:04;1.17;;;0.60;;
6860;SDS011;3469;47.060;15.460;2023-02-01T15:35:34;0.87;;;0.60;;
6860;SDS011;3469;47.060;15.460;2023-02-01T15:38:21;1.30;;;0.70;;
6860;SDS011;3469;47.060;15.460;2023-02-01T15:40:59;1.43;;;0.70;;
6860;SDS011;3469;47.060;15.460;2023-02-01T15:43:31;1.00;;;0.60;;
6860;SDS011;3469;47.060;15.460;2023-02-01T15:46:01;2.03;;;0.63;;
6860;SDS011;3469;47.060;15.460;2023-02-01T15:48:34;1.13;;;0.53;;
6860;SDS011;3469;47.060;15.460;2023-02-01T15:51:05;1.50;;;0.60;;
6860;SDS011;3469;47.060;15.460;2023-02-01T15:53:34;2.77;;;0.80;;
6860;SDS011;3469;47.060;15.460;2023-02-01T15:56:05;0.77;;;0.40;;
6860;SDS011;3469;47.060;15.460;2023-02-01T15:58:35;1.90;;;1.10;;
6860;SDS011;3469;47.060;15.460;2023-02-01T16:01:04;1.27;;;0.93;;
6860;SDS011;3469;47.060;15.460;2023-02-01T16:03:34;3.03;;;1.83;;
6860;SDS011;3469;47.060;15.460;2023-02-01T16:06:06;0.97;;;0.50;;
6860;SDS011;3469;47.060;15.460;2023-02-01T16:08:36;2.67;;;1.77;;
6860;SDS011;3469;47.060;15.460;2023-02-01T16:11:21;2.90;;;2.50;;
6860;SDS011;3469;47.060;15.460;2023-02-01T16:13:52;2.40;;;0.97;;
6860;SDS011;3469;47.060;15.460;2023-02-01T16:16:21;0.83;;;0.73;;
6860;SDS011;3469;47.060;15.460;2023-02-01T16:18:50;3.13;;;1.20;;
6860;SDS011;3469;47.060;15.460;2023-02-01T16:21:19;2.90;;;1.47;;
6860;SDS011;3469;47.060;15.460;2023-02-01T16:23:48;3.20;;;1.20;;
6860;SDS011;3469;47.060;15.460;2023-02-01T16:26:17;2.00;;;0.60;;
6860;SDS011;3469;47.060;15.460;2023-02-01T16:28:47;1.57;;;0.80;;
6860;SDS011;3469;47.060;15.460;2023-02-01T16:31:25;4.90;;;0.80;;
6860;SDS011;3469;47.060;15.460;2023-02-01T16:33:57;3.03;;;1.00;;
6860;SDS011;3469;47.060;15.460;2023-02-01T16:36:25;1.00;;;0.60;;
6860;SDS011;3469;47.060;15.460;2023-02-01T16:38:57;1.20;;;0.60;;
6860;SDS011;3469;47.060;15.460;2023-02-01T16:41:25;1.70;;;1.17;;